sensor_id;sensor_type;location;lat;lon;timestamp;pressure;altitude;pressure_sealevel;temperature;humidity
7407;BME280;3745;56.964;24.128;2023-04-04T00:01:09;102357.56;;;1.47;100.00
7407;BME280;3745;56.964;24.128;2023-04-04T00:03:34;102364.50;;;1.51;100.00
7407;BME280;3745;56.964;24.128;2023-04-04T00:06:00;102319.31;;;1.25;100.00
7407;BME280;3745;56.964;24.128;2023-04-04T00:08:27;102348.84;;;1.42;100.00
7407;BME280;3745;56.964;24.128;2023-04-04T00:10:59;102360.41;;;1.63;100.00
7407;BME280;3745;56.964;24.128;2023-04-04T00:13:25;102303.66;;;1.16;100.00
7407;BME280;3745;56.964;24.128;2023-04-04T00:15:52;102362.56;;;1.47;100.00
7407;BME280;3745;56.964;24.128;2023-04-04T00:18:17;102254.75;;;0.85;100.00
7407;BME280;3745;56.964;24.128;2023-04-04T00:20:43;102322.56;;;1.24;100.00
7407;BME280;3745;56.964;24.128;2023-04-04T00:23:08;102339.72;;;1.31;100.00
7407;BME280;3745;56.964;24.128;2023-04-04T00:25:38;102354.34;;;1.60;100.00
7407;BME280;3745;56.964;24.128;2023-04-04T00:28:04;102359.75;;;1.54;100.00
7407;BME280;3745;56.964;24.128;2023-04-04T00:30:29;102360.53;;;1.53;100.00
7407;BME280;3745;56.964;24.128;2023-04-04T00:32:58;102364.97;;;1.57;100.00
7407;BME280;3745;56.964;24.128;2023-04-04T00:35:26;102367.44;;;1.57;100.00
7407;BME280;3745;56.964;24.128;2023-04-04T00:37:52;102238.53;;;0.90;100.00
7407;BME280;3745;56.964;24.128;2023-04-04T00:40:17;102372.16;;;1.64;100.00
7407;BME280;3745;56.964;24.128;2023-04-04T00:42:43;102297.38;;;1.21;100.00
7407;BME280;3745;56.964;24.128;2023-04-04T00:45:10;102349.53;;;1.51;100.00
7407;BME280;3745;56.964;24.128;2023-04-04T00:47:36;102245.44;;;0.82;100.00
7407;BME280;3745;56.964;24.128;2023-04-04T00:50:02;102328.22;;;1.33;100.00
7407;BME280;3745;56.964;24.128;2023-04-04T00:52:28;102290.66;;;1.20;100.00
7407;BME280;3745;56.964;24.128;2023-04-04T00:54:54;102347.41;;;1.56;100.00
7407;BME280;3745;56.964;24.128;2023-04-04T00:57:20;102267.75;;;1.14;100.00
7407;BME280;3745;56.964;24.128;2023-04-04T00:59:47;102298.28;;;1.33;100.00
7407;BME280;3745;56.964;24.128;2023-04-04T01:02:13;102351.97;;;1.61;100.00
7407;BME280;3745;56.964;24.128;2023-04-04T01:04:39;102347.47;;;1.46;100.00
7407;BME280;3745;56.964;24.128;2023-04-04T01:07:04;102200.31;;;0.68;100.00
7407;BME280;3745;56.964;24.128;2023-04-04T01:09:30;102302.81;;;1.27;100.00
7407;BME280;3745;56.964;24.128;2023-04-04T01:11:56;102275.66;;;1.08;100.00
7407;BME280;3745;56.964;24.128;2023-04-04T01:14:22;102321.31;;;1.41;100.00
7407;BME280;3745;56.964;24.128;2023-04-04T01:16:51;102340.63;;;1.43;100.00
7407;BME280;3745;56.964;24.128;2023-04-04T01:19:36;102339.34;;;1.48;100.00
7407;BME280;3745;56.964;24.128;2023-04-04T01:22:04;102273.97;;;1.19;100.00
7407;BME280;3745;56.964;24.128;2023-04-04T01:24:34;102320.00;;;1.34;100.00
7407;BME280;3745;56.964;24.128;2023-04-04T01:27:00;102332.63;;;1.47;100.00
7407;BME280;3745;56.964;24.128;2023-04-04T01:29:26;102328.69;;;1.39;100.00
7407;BME280;3745;56.964;24.128;2023-04-04T01:32:24;102325.88;;;1.46;100.00
7407;BME280;3745;56.964;24.128;2023-04-04T01:35:06;102330.66;;;1.43;100.00
7407;BME280;3745;56.964;24.128;2023-04-04T01:37:46;102300.69;;;1.32;100.00
7407;BME280;3745;56.964;24.128;2023-04-04T01:40:17;102329.59;;;1.51;100.00
7407;BME280;3745;56.964;24.128;2023-04-04T01:42:46;102230.75;;;0.97;100.00
7407;BME280;3745;56.964;24.128;2023-04-04T01:45:12;102317.66;;;1.47;100.00
7407;BME280;3745;56.964;24.128;2023-04-04T01:47:41;102307.75;;;1.37;100.00
7407;BME280;3745;56.964;24.128;2023-04-04T01:50:09;102301.78;;;1.35;100.00
7407;BME280;3745;56.964;24.128;2023-04-04T01:52:35;102312.69;;;1.47;100.00
7407;BME280;3745;56.964;24.128;2023-04-04T01:55:01;102312.69;;;1.47;100.00
7407;BME280;3745;56.964;24.128;2023-04-04T01:57:28;102318.13;;;1.53;100.00
7407;BME280;3745;56.964;24.128;2023-04-04T01:59:54;102305.75;;;1.55;100.00
7407;BME280;3745;56.964;24.128;2023-04-04T02:02:19;102310.63;;;1.53;100.00
7407;BME280;3745;56.964;24.128;2023-04-04T02:04:45;102314.41;;;1.48;100.00
7407;BME280;3745;56.964;24.128;2023-04-04T02:07:12;102255.75;;;1.20;100.00
7407;BME280;3745;56.964;24.128;2023-04-04T02:09:38;102309.84;;;1.54;100.00
7407;BME280;3745;56.964;24.128;2023-04-04T02:12:04;102312.03;;;1.50;100.00
7407;BME280;3745;56.964;24.128;2023-04-04T02:14:29;102305.72;;;1.43;100.00
7407;BME280;3745;56.964;24.128;2023-04-04T02:16:55;102188.00;;;0.81;100.00
7407;BME280;3745;56.964;24.128;2023-04-04T02:19:20;102304.50;;;1.38;100.00
7407;BME280;3745;56.964;24.128;2023-04-04T02:21:46;102111.88;;;0.29;100.00
7407;BME280;3745;56.964;24.128;2023-04-04T02:24:12;102302.25;;;1.41;100.00
7407;BME280;3745;56.964;24.128;2023-04-04T02:26:37;102300.50;;;1.40;100.00
7407;BME280;3745;56.964;24.128;2023-04-04T02:29:03;102232.03;;;0.92;100.00
7407;BME280;3745;56.964;24.128;2023-04-04T02:31:29;102300.06;;;1.46;100.00
7407;BME280;3745;56.964;24.128;2023-04-04T02:33:54;102239.88;;;1.08;100.00
7407;BME280;3745;56.964;24.128;2023-04-04T02:36:20;102153.06;;;0.58;100.00
7407;BME280;3745;56.964;24.128;2023-04-04T02:38:46;102292.03;;;1.38;100.00
7407;BME280;3745;56.964;24.128;2023-04-04T02:41:11;102200.81;;;0.85;100.00
7407;BME280;3745;56.964;24.128;2023-04-04T02:43:37;102293.75;;;1.39;100.00
7407;BME280;3745;56.964;24.128;2023-04-04T02:46:03;102187.78;;;0.78;100.00
7407;BME280;3745;56.964;24.128;2023-04-04T02:48:28;102288.75;;;1.28;100.00
7407;BME280;3745;56.964;24.128;2023-04-04T02:50:54;102285.31;;;1.37;100.00
7407;BME280;3745;56.964;24.128;2023-04-04T02:53:19;102172.38;;;0.72;100.00
7407;BME280;3745;56.964;24.128;2023-04-04T02:55:45;102288.31;;;1.33;100.00
7407;BME280;3745;56.964;24.128;2023-04-04T02:58:11;102278.13;;;1.30;100.00
7407;BME280;3745;56.964;24.128;2023-04-04T03:00:37;102205.16;;;0.88;100.00
7407;BME280;3745;56.964;24.128;2023-04-04T03:03:02;102179.56;;;0.79;100.00
7407;BME280;3745;56.964;24.128;2023-04-04T03:05:28;102184.75;;;0.82;100.00
7407;BME280;3745;56.964;24.128;2023-04-04T03:07:55;102238.41;;;1.10;100.00
7407;BME280;3745;56.964;24.128;2023-04-04T03:10:26;102276.94;;;1.25;100.00
7407;BME280;3745;56.964;24.128;2023-04-04T03:12:54;102270.19;;;1.24;100.00
7407;BME280;3745;56.964;24.128;2023-04-04T03:15:19;102239.66;;;1.05;100.00
7407;BME280;3745;56.964;24.128;2023-04-04T03:17:45;102276.94;;;1.25;100.00
7407;BME280;3745;56.964;24.128;2023-04-04T03:20:12;102266.94;;;1.25;100.00
7407;BME280;3745;56.964;24.128;2023-04-04T03:22:39;102237.25;;;0.95;100.00
7407;BME280;3745;56.964;24.128;2023-04-04T03:25:06;102236.94;;;1.02;100.00
7407;BME280;3745;56.964;24.128;2023-04-04T03:27:32;102214.16;;;0.86;100.00
7407;BME280;3745;56.964;24.128;2023-04-04T03:29:58;102260.63;;;1.19;100.00
7407;BME280;3745;56.964;24.128;2023-04-04T03:32:24;102261.19;;;1.26;100.00
7407;BME280;3745;56.964;24.128;2023-04-04T03:34:50;102267.25;;;1.18;100.00
7407;BME280;3745;56.964;24.128;2023-04-04T03:37:16;102258.84;;;1.06;100.00
7407;BME280;3745;56.964;24.128;2023-04-04T03:39:42;102216.19;;;0.80;100.00
7407;BME280;3745;56.964;24.128;2023-04-04T03:42:08;102176.22;;;0.57;100.00
7407;BME280;3745;56.964;24.128;2023-04-04T03:44:33;102254.56;;;1.15;100.00
7407;BME280;3745;56.964;24.128;2023-04-04T03:46:59;102101.41;;;0.33;100.00
7407;BME280;3745;56.964;24.128;2023-04-04T03:49:24;102242.38;;;1.08;100.00
7407;BME280;3745;56.964;24.128;2023-04-04T03:51:50;102251.59;;;1.09;100.00
7407;BME280;3745;56.964;24.128;2023-04-04T03:54:15;102204.09;;;0.96;100.00
7407;BME280;3745;56.964;24.128;2023-04-04T03:56:42;102187.41;;;0.95;100.00
7407;BME280;3745;56.964;24.128;2023-04-04T03:59:07;102180.47;;;0.91;100.00
7407;BME280;3745;56.964;24.128;2023-04-04T04:01:33;102235.44;;;1.37;100.00
7407;BME280;3745;56.964;24.128;2023-04-04T04:03:59;102143.84;;;0.90;100.00
7407;BME280;3745;56.964;24.128;2023-04-04T04:06:25;102243.47;;;1.45;100.00
7407;BME280;3745;56.964;24.128;2023-04-04T04:08:51;102235.44;;;1.37;100.00
7407;BME280;3745;56.964;24.128;2023-04-04T04:11:17;102179.03;;;1.16;100.00
7407;BME280;3745;56.964;24.128;2023-04-04T04:13:46;102234.34;;;1.45;100.00
7407;BME280;3745;56.964;24.128;2023-04-04T04:16:12;102139.06;;;0.93;100.00
7407;BME280;3745;56.964;24.128;2023-04-04T04:18:37;102242.16;;;1.38;100.00
7407;BME280;3745;56.964;24.128;2023-04-04T04:21:03;102245.19;;;1.46;100.00
7407;BME280;3745;56.964;24.128;2023-04-04T04:23:29;102215.78;;;1.30;100.00
7407;BME280;3745;56.964;24.128;2023-04-04T04:25:55;102206.09;;;1.23;100.00
7407;BME280;3745;56.964;24.128;2023-04-04T04:28:22;102241.31;;;1.49;100.00
7407;BME280;3745;56.964;24.128;2023-04-04T04:30:50;102231.34;;;1.49;100.00
7407;BME280;3745;56.964;24.128;2023-04-04T04:33:16;102143.00;;;1.01;100.00
7407;BME280;3745;56.964;24.128;2023-04-04T04:35:42;102137.59;;;0.95;100.00
7407;BME280;3745;56.964;24.128;2023-04-04T04:38:07;102240.66;;;1.63;100.00
7407;BME280;3745;56.964;24.128;2023-04-04T04:40:34;102118.47;;;0.84;100.00
7407;BME280;3745;56.964;24.128;2023-04-04T04:42:59;102237.22;;;1.61;100.00
7407;BME280;3745;56.964;24.128;2023-04-04T04:45:25;102153.19;;;1.04;100.00
7407;BME280;3745;56.964;24.128;2023-04-04T04:47:51;102236.53;;;1.52;100.00
7407;BME280;3745;56.964;24.128;2023-04-04T04:50:17;102186.81;;;1.21;100.00
7407;BME280;3745;56.964;24.128;2023-04-04T04:52:43;102176.38;;;1.03;100.00
7407;BME280;3745;56.964;24.128;2023-04-04T04:55:09;102214.81;;;1.28;100.00
7407;BME280;3745;56.964;24.128;2023-04-04T04:57:37;102240.44;;;1.60;100.00
7407;BME280;3745;56.964;24.128;2023-04-04T05:00:03;102238.97;;;1.62;100.00
7407;BME280;3745;56.964;24.128;2023-04-04T05:02:29;102096.81;;;0.83;100.00
7407;BME280;3745;56.964;24.128;2023-04-04T05:04:55;102245.44;;;1.60;100.00
7407;BME280;3745;56.964;24.128;2023-04-04T05:07:21;102186.16;;;1.23;100.00
7407;BME280;3745;56.964;24.128;2023-04-04T05:09:46;102132.81;;;0.98;100.00
7407;BME280;3745;56.964;24.128;2023-04-04T05:12:12;102247.19;;;1.61;100.00
7407;BME280;3745;56.964;24.128;2023-04-04T05:14:38;102244.91;;;1.64;100.00
7407;BME280;3745;56.964;24.128;2023-04-04T05:17:03;102250.56;;;1.74;100.00
7407;BME280;3745;56.964;24.128;2023-04-04T05:19:29;102244.81;;;1.75;100.00
7407;BME280;3745;56.964;24.128;2023-04-04T05:21:55;102247.84;;;1.71;100.00
7407;BME280;3745;56.964;24.128;2023-04-04T05:24:20;102253.72;;;1.83;100.00
7407;BME280;3745;56.964;24.128;2023-04-04T05:26:47;102210.19;;;1.56;100.00
7407;BME280;3745;56.964;24.128;2023-04-04T05:29:13;102247.84;;;1.82;100.00
7407;BME280;3745;56.964;24.128;2023-04-04T05:31:41;102250.69;;;1.98;100.00
7407;BME280;3745;56.964;24.128;2023-04-04T05:34:07;102215.84;;;1.77;100.00
7407;BME280;3745;56.964;24.128;2023-04-04T05:36:35;102261.84;;;1.92;100.00
7407;BME280;3745;56.964;24.128;2023-04-04T05:39:02;102257.00;;;2.05;100.00
7407;BME280;3745;56.964;24.128;2023-04-04T05:41:29;102194.28;;;1.66;100.00
7407;BME280;3745;56.964;24.128;2023-04-04T05:43:55;102248.75;;;2.06;100.00
7407;BME280;3745;56.964;24.128;2023-04-04T05:46:21;102243.53;;;2.14;100.00
7407;BME280;3745;56.964;24.128;2023-04-04T05:48:47;102191.88;;;2.02;100.00
7407;BME280;3745;56.964;24.128;2023-04-04T05:51:14;102190.97;;;2.13;100.00
7407;BME280;3745;56.964;24.128;2023-04-04T05:53:40;102198.13;;;2.20;100.00
7407;BME280;3745;56.964;24.128;2023-04-04T05:56:05;102220.28;;;2.27;100.00
7407;BME280;3745;56.964;24.128;2023-04-04T05:58:31;102224.91;;;2.34;100.00
7407;BME280;3745;56.964;24.128;2023-04-04T06:00:56;102241.97;;;2.40;100.00
7407;BME280;3745;56.964;24.128;2023-04-04T06:03:22;102198.88;;;2.19;100.00
7407;BME280;3745;56.964;24.128;2023-04-04T06:05:51;102222.84;;;2.40;100.00
7407;BME280;3745;56.964;24.128;2023-04-04T06:08:17;102232.38;;;2.57;100.00
7407;BME280;3745;56.964;24.128;2023-04-04T06:10:42;102128.50;;;2.00;100.00
7407;BME280;3745;56.964;24.128;2023-04-04T06:13:08;102190.66;;;2.56;100.00
7407;BME280;3745;56.964;24.128;2023-04-04T06:15:34;102234.50;;;2.76;100.00
7407;BME280;3745;56.964;24.128;2023-04-04T06:17:59;102190.22;;;2.50;100.00
7407;BME280;3745;56.964;24.128;2023-04-04T06:20:25;102233.19;;;2.69;100.00
7407;BME280;3745;56.964;24.128;2023-04-04T06:22:51;102219.53;;;2.64;100.00
7407;BME280;3745;56.964;24.128;2023-04-04T06:25:17;102183.50;;;2.49;100.00
7407;BME280;3745;56.964;24.128;2023-04-04T06:27:43;102190.44;;;2.53;100.00
7407;BME280;3745;56.964;24.128;2023-04-04T06:30:10;102230.97;;;2.86;100.00
7407;BME280;3745;56.964;24.128;2023-04-04T06:32:35;102174.63;;;2.41;100.00
7407;BME280;3745;56.964;24.128;2023-04-04T06:35:01;102227.28;;;2.81;100.00
7407;BME280;3745;56.964;24.128;2023-04-04T06:37:28;102207.88;;;2.65;100.00
7407;BME280;3745;56.964;24.128;2023-04-04T06:39:54;102220.28;;;2.63;100.00
7407;BME280;3745;56.964;24.128;2023-04-04T06:42:20;102134.13;;;2.09;100.00
7407;BME280;3745;56.964;24.128;2023-04-04T06:44:46;102228.19;;;2.69;100.00
7407;BME280;3745;56.964;24.128;2023-04-04T06:47:11;102194.34;;;2.61;100.00
7407;BME280;3745;56.964;24.128;2023-04-04T06:49:38;102198.41;;;2.72;100.00
7407;BME280;3745;56.964;24.128;2023-04-04T06:52:03;102124.25;;;2.35;100.00
7407;BME280;3745;56.964;24.128;2023-04-04T06:54:29;102224.22;;;2.85;100.00
7407;BME280;3745;56.964;24.128;2023-04-04T06:56:55;102053.19;;;1.82;100.00
7407;BME280;3745;56.964;24.128;2023-04-04T06:59:21;102213.31;;;2.96;100.00
7407;BME280;3745;56.964;24.128;2023-04-04T07:01:47;102161.19;;;2.89;100.00
7407;BME280;3745;56.964;24.128;2023-04-04T07:04:13;102202.41;;;3.07;100.00
7407;BME280;3745;56.964;24.128;2023-04-04T07:06:38;102176.59;;;2.95;100.00
7407;BME280;3745;56.964;24.128;2023-04-04T07:09:04;102190.25;;;3.00;100.00
7407;BME280;3745;56.964;24.128;2023-04-04T07:11:30;102212.81;;;3.13;100.00
7407;BME280;3745;56.964;24.128;2023-04-04T07:13:55;102205.06;;;2.97;100.00
7407;BME280;3745;56.964;24.128;2023-04-04T07:16:21;102107.94;;;2.40;100.00
7407;BME280;3745;56.964;24.128;2023-04-04T07:18:47;102202.41;;;3.07;100.00
7407;BME280;3745;56.964;24.128;2023-04-04T07:21:12;102156.41;;;2.80;100.00
7407;BME280;3745;56.964;24.128;2023-04-04T07:23:47;102196.44;;;3.18;100.00
7407;BME280;3745;56.964;24.128;2023-04-04T07:26:15;102204.19;;;2.96;100.00
7407;BME280;3745;56.964;24.128;2023-04-04T07:28:40;102175.59;;;2.68;100.00
7407;BME280;3745;56.964;24.128;2023-04-04T07:31:07;102200.97;;;2.86;100.00
7407;BME280;3745;56.964;24.128;2023-04-04T07:33:32;102198.38;;;2.84;100.00
7407;BME280;3745;56.964;24.128;2023-04-04T07:36:00;102193.09;;;2.93;100.00
7407;BME280;3745;56.964;24.128;2023-04-04T07:38:26;102199.44;;;2.88;100.00
7407;BME280;3745;56.964;24.128;2023-04-04T07:40:52;102094.78;;;2.18;100.00
7407;BME280;3745;56.964;24.128;2023-04-04T07:43:17;102027.72;;;2.11;100.00
7407;BME280;3745;56.964;24.128;2023-04-04T07:45:43;102206.94;;;3.12;100.00
7407;BME280;3745;56.964;24.128;2023-04-04T07:48:08;101977.25;;;1.79;100.00
7407;BME280;3745;56.964;24.128;2023-04-04T07:50:40;102082.44;;;2.57;100.00
7407;BME280;3745;56.964;24.128;2023-04-04T07:53:09;102194.00;;;3.31;100.00
7407;BME280;3745;56.964;24.128;2023-04-04T07:55:35;102196.72;;;3.47;100.00
7407;BME280;3745;56.964;24.128;2023-04-04T07:58:04;102187.44;;;3.33;100.00
7407;BME280;3745;56.964;24.128;2023-04-04T08:00:30;102111.00;;;2.86;100.00
7407;BME280;3745;56.964;24.128;2023-04-04T08:02:56;102055.66;;;2.55;100.00
7407;BME280;3745;56.964;24.128;2023-04-04T08:05:23;102151.03;;;3.12;100.00
7407;BME280;3745;56.964;24.128;2023-04-04T08:07:49;102188.22;;;3.45;100.00
7407;BME280;3745;56.964;24.128;2023-04-04T08:10:18;102020.16;;;2.47;100.00
7407;BME280;3745;56.964;24.128;2023-04-04T08:12:49;102179.97;;;3.46;100.00
7407;BME280;3745;56.964;24.128;2023-04-04T08:15:18;102167.28;;;3.56;100.00
7407;BME280;3745;56.964;24.128;2023-04-04T08:17:43;102032.50;;;2.84;100.00
7407;BME280;3745;56.964;24.128;2023-04-04T08:20:09;102008.09;;;2.66;100.00
7407;BME280;3745;56.964;24.128;2023-04-04T08:22:35;102169.88;;;3.84;100.00
7407;BME280;3745;56.964;24.128;2023-04-04T08:25:01;102181.50;;;3.97;100.00
7407;BME280;3745;56.964;24.128;2023-04-04T08:27:30;102180.03;;;4.13;100.00
7407;BME280;3745;56.964;24.128;2023-04-04T08:29:56;102175.03;;;4.13;100.00
7407;BME280;3745;56.964;24.128;2023-04-04T08:32:22;102172.69;;;4.29;100.00
7407;BME280;3745;56.964;24.128;2023-04-04T08:34:48;102100.03;;;3.75;100.00
7407;BME280;3745;56.964;24.128;2023-04-04T08:37:14;102146.34;;;4.08;100.00
7407;BME280;3745;56.964;24.128;2023-04-04T08:39:40;102177.00;;;4.32;100.00
7407;BME280;3745;56.964;24.128;2023-04-04T08:42:06;102171.63;;;4.26;100.00
7407;BME280;3745;56.964;24.128;2023-04-04T08:44:35;102144.34;;;3.90;100.00
7407;BME280;3745;56.964;24.128;2023-04-04T08:47:06;102171.81;;;4.16;100.00
7407;BME280;3745;56.964;24.128;2023-04-04T08:49:42;102053.91;;;3.31;100.00
7407;BME280;3745;56.964;24.128;2023-04-04T08:52:10;102166.44;;;4.23;100.00
7407;BME280;3745;56.964;24.128;2023-04-04T08:54:38;102115.59;;;4.11;100.00
7407;BME280;3745;56.964;24.128;2023-04-04T08:57:05;102133.28;;;4.27;100.00
7407;BME280;3745;56.964;24.128;2023-04-04T08:59:31;102169.28;;;4.42;100.00
7407;BME280;3745;56.964;24.128;2023-04-04T09:02:13;102157.16;;;4.22;100.00
7407;BME280;3745;56.964;24.128;2023-04-04T09:04:40;102124.88;;;3.72;100.00
7407;BME280;3745;56.964;24.128;2023-04-04T09:07:08;102170.72;;;3.84;100.00
7407;BME280;3745;56.964;24.128;2023-04-04T09:09:35;102119.69;;;3.69;100.00
7407;BME280;3745;56.964;24.128;2023-04-04T09:12:03;102171.00;;;4.02;100.00
7407;BME280;3745;56.964;24.128;2023-04-04T09:14:30;102127.59;;;3.49;100.00
7407;BME280;3745;56.964;24.128;2023-04-04T09:16:56;102171.13;;;3.64;100.00
7407;BME280;3745;56.964;24.128;2023-04-04T09:19:22;102141.94;;;3.65;100.00
7407;BME280;3745;56.964;24.128;2023-04-04T09:21:48;102058.91;;;3.18;100.00
7407;BME280;3745;56.964;24.128;2023-04-04T09:24:14;102162.63;;;3.89;100.00
7407;BME280;3745;56.964;24.128;2023-04-04T09:29:12;102163.00;;;3.95;100.00
7407;BME280;3745;56.964;24.128;2023-04-04T09:31:38;102143.38;;;3.74;100.00
7407;BME280;3745;56.964;24.128;2023-04-04T09:34:04;102098.75;;;3.41;100.00
7407;BME280;3745;56.964;24.128;2023-04-04T09:36:30;102060.53;;;3.31;100.00
7407;BME280;3745;56.964;24.128;2023-04-04T09:38:56;102010.03;;;2.97;100.00
7407;BME280;3745;56.964;24.128;2023-04-04T09:41:24;102154.28;;;4.16;100.00
7407;BME280;3745;56.964;24.128;2023-04-04T09:43:50;102154.38;;;4.30;100.00
7407;BME280;3745;56.964;24.128;2023-04-04T09:46:18;102116.47;;;4.11;100.00
7407;BME280;3745;56.964;24.128;2023-04-04T09:48:49;102085.03;;;3.75;100.00
7407;BME280;3745;56.964;24.128;2023-04-04T09:51:15;102145.53;;;4.09;100.00
7407;BME280;3745;56.964;24.128;2023-04-04T09:53:41;102145.09;;;4.02;100.00
7407;BME280;3745;56.964;24.128;2023-04-04T09:56:07;102147.94;;;4.21;100.00
7407;BME280;3745;56.964;24.128;2023-04-04T09:58:33;102138.28;;;4.27;100.00
7407;BME280;3745;56.964;24.128;2023-04-04T10:01:06;102020.31;;;3.81;100.00
7407;BME280;3745;56.964;24.128;2023-04-04T10:03:35;102149.78;;;4.51;100.00
7407;BME280;3745;56.964;24.128;2023-04-04T10:06:05;102154.09;;;4.54;100.00
7407;BME280;3745;56.964;24.128;2023-04-04T10:08:33;102134.06;;;4.13;100.00
7407;BME280;3745;56.964;24.128;2023-04-04T10:11:01;102157.25;;;3.82;100.00
7407;BME280;3745;56.964;24.128;2023-04-04T10:13:32;102142.81;;;3.65;100.00
7407;BME280;3745;56.964;24.128;2023-04-04T10:16:01;102146.28;;;3.67;100.00
7407;BME280;3745;56.964;24.128;2023-04-04T10:18:35;102149.66;;;3.81;100.00
7407;BME280;3745;56.964;24.128;2023-04-04T10:21:03;102120.25;;;3.78;100.00
7407;BME280;3745;56.964;24.128;2023-04-04T10:23:29;101980.41;;;3.03;100.00
7407;BME280;3745;56.964;24.128;2023-04-04T10:25:58;102078.53;;;3.92;100.00
7407;BME280;3745;56.964;24.128;2023-04-04T10:28:25;102053.81;;;3.83;100.00
7407;BME280;3745;56.964;24.128;2023-04-04T10:31:24;102140.63;;;4.11;100.00
7407;BME280;3745;56.964;24.128;2023-04-04T10:34:03;102145.19;;;4.31;100.00
7407;BME280;3745;56.964;24.128;2023-04-04T10:36:39;102135.81;;;4.14;100.00
7407;BME280;3745;56.964;24.128;2023-04-04T10:39:22;102120.22;;;4.05;100.00
7407;BME280;3745;56.964;24.128;2023-04-04T10:41:50;102135.06;;;4.43;100.00
7407;BME280;3745;56.964;24.128;2023-04-04T10:44:23;102106.66;;;4.29;100.00
7407;BME280;3745;56.964;24.128;2023-04-04T10:46:54;102132.19;;;4.64;100.00
7407;BME280;3745;56.964;24.128;2023-04-04T10:49:23;102147.03;;;4.61;100.00
7407;BME280;3745;56.964;24.128;2023-04-04T10:51:50;102142.75;;;4.88;100.00
7407;BME280;3745;56.964;24.128;2023-04-04T10:54:17;102130.47;;;4.92;100.00
7407;BME280;3745;56.964;24.128;2023-04-04T10:56:44;102109.84;;;4.54;100.00
7407;BME280;3745;56.964;24.128;2023-04-04T10:59:14;102116.09;;;4.75;100.00
7407;BME280;3745;56.964;24.128;2023-04-04T11:01:49;102136.91;;;5.17;100.00
7407;BME280;3745;56.964;24.128;2023-04-04T11:04:30;102096.91;;;4.61;100.00
7407;BME280;3745;56.964;24.128;2023-04-04T11:07:15;102147.66;;;4.44;100.00
7407;BME280;3745;56.964;24.128;2023-04-04T11:09:45;102141.09;;;4.46;100.00
7407;BME280;3745;56.964;24.128;2023-04-04T11:12:12;102137.31;;;4.53;100.00
7407;BME280;3745;56.964;24.128;2023-04-04T11:15:18;102111.59;;;4.55;100.00
7407;BME280;3745;56.964;24.128;2023-04-04T11:20:16;102043.91;;;4.84;100.00
7407;BME280;3745;56.964;24.128;2023-04-04T11:22:42;102109.03;;;4.98;100.00
7407;BME280;3745;56.964;24.128;2023-04-04T11:27:55;102090.69;;;4.69;100.00
7407;BME280;3745;56.964;24.128;2023-04-04T11:30:22;102119.38;;;5.33;100.00
7407;BME280;3745;56.964;24.128;2023-04-04T11:32:48;102056.25;;;5.25;100.00
7407;BME280;3745;56.964;24.128;2023-04-04T11:35:15;102097.59;;;5.17;100.00
7407;BME280;3745;56.964;24.128;2023-04-04T11:40:19;102058.66;;;4.36;100.00
7407;BME280;3745;56.964;24.128;2023-04-04T11:42:58;102112.56;;;4.44;100.00
7407;BME280;3745;56.964;24.128;2023-04-04T11:45:28;102116.41;;;4.52;100.00
7407;BME280;3745;56.964;24.128;2023-04-04T11:47:56;102083.97;;;4.13;100.00
7407;BME280;3745;56.964;24.128;2023-04-04T11:50:22;102118.59;;;4.33;100.00
7407;BME280;3745;56.964;24.128;2023-04-04T11:52:49;102121.69;;;4.29;100.00
7407;BME280;3745;56.964;24.128;2023-04-04T11:55:17;102080.22;;;4.34;100.00
7407;BME280;3745;56.964;24.128;2023-04-04T11:57:45;102124.47;;;4.61;100.00
7407;BME280;3745;56.964;24.128;2023-04-04T12:00:27;102053.97;;;4.27;100.00
7407;BME280;3745;56.964;24.128;2023-04-04T12:02:54;101996.47;;;3.73;100.00
7407;BME280;3745;56.964;24.128;2023-04-04T12:05:20;102130.22;;;4.46;100.00
7407;BME280;3745;56.964;24.128;2023-04-04T12:07:47;102127.06;;;4.35;100.00
7407;BME280;3745;56.964;24.128;2023-04-04T12:10:13;102125.28;;;4.47;100.00
7407;BME280;3745;56.964;24.128;2023-04-04T12:12:41;101925.75;;;3.35;100.00
7407;BME280;3745;56.964;24.128;2023-04-04T12:15:07;102123.66;;;4.48;100.00
7407;BME280;3745;56.964;24.128;2023-04-04T12:17:38;102094.72;;;4.25;100.00
7407;BME280;3745;56.964;24.128;2023-04-04T12:20:05;102087.19;;;4.25;100.00
7407;BME280;3745;56.964;24.128;2023-04-04T12:22:35;102026.69;;;3.76;100.00
7407;BME280;3745;56.964;24.128;2023-04-04T12:25:02;102112.88;;;4.21;100.00
7407;BME280;3745;56.964;24.128;2023-04-04T12:27:30;102097.09;;;4.09;100.00
7407;BME280;3745;56.964;24.128;2023-04-04T12:29:58;102079.31;;;4.19;100.00
7407;BME280;3745;56.964;24.128;2023-04-04T12:32:27;102088.47;;;4.18;100.00
7407;BME280;3745;56.964;24.128;2023-04-04T12:34:59;102098.41;;;4.45;100.00
7407;BME280;3745;56.964;24.128;2023-04-04T12:37:27;102096.53;;;4.55;100.00
7407;BME280;3745;56.964;24.128;2023-04-04T12:39:55;102077.66;;;4.47;100.00
7407;BME280;3745;56.964;24.128;2023-04-04T12:42:24;102094.63;;;4.51;100.00
7407;BME280;3745;56.964;24.128;2023-04-04T12:44:51;102076.63;;;4.16;100.00
7407;BME280;3745;56.964;24.128;2023-04-04T12:47:19;102040.50;;;3.84;100.00
7407;BME280;3745;56.964;24.128;2023-04-04T12:49:48;101911.47;;;2.93;100.00
7407;BME280;3745;56.964;24.128;2023-04-04T12:52:25;101976.25;;;3.29;100.00
7407;BME280;3745;56.964;24.128;2023-04-04T12:54:52;102058.28;;;3.74;100.00
7407;BME280;3745;56.964;24.128;2023-04-04T12:57:20;101930.03;;;2.97;100.00
7407;BME280;3745;56.964;24.128;2023-04-04T12:59:46;102069.06;;;3.60;100.00
7407;BME280;3745;56.964;24.128;2023-04-04T13:02:20;102091.00;;;3.91;100.00
7407;BME280;3745;56.964;24.128;2023-04-04T13:04:47;101953.97;;;3.19;100.00
7407;BME280;3745;56.964;24.128;2023-04-04T13:07:42;102105.84;;;3.88;100.00
7407;BME280;3745;56.964;24.128;2023-04-04T13:10:10;101872.78;;;2.60;100.00
7407;BME280;3745;56.964;24.128;2023-04-04T13:12:59;101892.16;;;2.78;100.00